KCVS/CVS METAR and TAF weather

Enter ICAO airport designator
Station Type Date Time Source
KCVS METAR 2021/02/27 03:58 UTC NOAA

KCVS 270358Z AUTO 28013KT 10SM CLR 09/M18 A2988 RMK AO2 SLP102 T00871182 $


Station Type Date Time Source
KCVS Decoded METAR 2021/02/27 03:58 UTC NOAA

Cannon Air Force Base / Clovis, NM, United States (KCVS) 34-23N 103-19W
Feb 26, 2021 - 10:58 PM EST / 2021.02.27 0358 UTC
Wind: from the W (280 degrees) at 15 MPH (13 KT):0
Visibility: 10 mile(s):0
Sky conditions: clear
Temperature: 47.7 F (8.7 C)
Dew Point: -0.8 F (-18.2 C)
Relative Humidity: 13%
Pressure (altimeter): 29.88 in. Hg (1011 hPa)
ob: KCVS 270358Z AUTO 28013KT 10SM CLR 09/M18 A2988 RMK AO2 SLP102 T00871182
cycle: 4

Station Type Date Time Source
KCVS TAF 2021/02/27 02:52 UTC NOAA

TAF KCVS 270240Z 2702/2808 26010KT 9999 FEW250 QNH2983INS
BECMG 2715/2716 23012G18KT 9999 SKC QNH2977INS
BECMG 2718/2719 25015G30KT 9999 SKC QNH2970INS
BECMG 2720/2721 25020G35KT 9999 FEW250 520009 QNH2968INS
BECMG 2802/2803 34010KT 9999 SKC QNH3011INS TX13/2703Z TNM04/2713Z

Example: see airport list